createdAt,value
2018-05-31T00:01:23.419Z,15.50
2018-05-31T00:03:50.131Z,15.50
2018-05-31T00:06:21.765Z,15.50
2018-05-31T00:08:49.214Z,15.50
2018-05-31T00:11:16.671Z,15.50
2018-05-31T00:13:43.376Z,15.50
2018-05-31T00:16:10.066Z,15.50
2018-05-31T00:18:36.778Z,15.30
2018-05-31T00:21:03.855Z,15.20
2018-05-31T00:23:30.547Z,15.00
2018-05-31T00:25:57.253Z,14.90
2018-05-31T00:28:25.604Z,14.80
2018-05-31T00:30:52.371Z,14.80
2018-05-31T00:33:19.091Z,14.70
2018-05-31T00:35:45.786Z,14.70
2018-05-31T00:38:12.599Z,14.60
2018-05-31T00:40:39.319Z,14.70
2018-05-31T00:43:06.136Z,14.60
2018-05-31T00:45:33.619Z,14.70
2018-05-31T00:48:00.326Z,14.70
2018-05-31T00:50:27.903Z,14.80
2018-05-31T00:52:54.586Z,14.80
2018-05-31T00:55:39.960Z,14.80
2018-05-31T00:58:06.666Z,14.90
2018-05-31T01:00:34.989Z,14.90
2018-05-31T01:03:02.234Z,14.90
2018-05-31T01:05:29.085Z,14.90
2018-05-31T01:07:55.823Z,14.90
2018-05-31T01:10:22.539Z,14.90
2018-05-31T01:12:49.267Z,14.90
2018-05-31T01:15:15.994Z,14.90
2018-05-31T01:17:42.726Z,14.90
2018-05-31T01:20:10.159Z,14.90
2018-05-31T01:22:36.874Z,14.90
2018-05-31T01:25:03.629Z,14.90
2018-05-31T01:27:30.334Z,14.90
2018-05-31T01:29:57.080Z,15.00
2018-05-31T01:32:23.783Z,15.00
2018-05-31T01:34:50.494Z,15.00
2018-05-31T01:37:17.994Z,14.90
2018-05-31T01:39:44.734Z,14.90
2018-05-31T01:42:11.704Z,14.80
2018-05-31T01:44:38.421Z,14.90
2018-05-31T01:47:05.126Z,14.80
2018-05-31T01:49:32.581Z,14.40
2018-05-31T01:52:00.015Z,14.30
2018-05-31T01:54:26.719Z,14.30
2018-05-31T01:56:53.443Z,14.20
2018-05-31T01:59:20.134Z,14.10
2018-05-31T02:01:46.832Z,14.10
2018-05-31T02:04:13.518Z,14.10
2018-05-31T02:06:40.218Z,14.10
2018-05-31T02:09:06.919Z,14.10
2018-05-31T02:11:34.359Z,14.10
2018-05-31T02:14:01.069Z,14.10
2018-05-31T02:16:27.813Z,14.10
2018-05-31T02:18:54.519Z,14.10
2018-05-31T02:21:21.236Z,14.10
2018-05-31T02:23:47.949Z,14.10
2018-05-31T02:26:14.647Z,14.20
2018-05-31T02:28:41.361Z,14.20
2018-05-31T02:31:08.079Z,14.30
2018-05-31T02:33:35.554Z,14.40
2018-05-31T02:36:02.241Z,14.40
2018-05-31T02:38:28.934Z,14.50
2018-05-31T02:40:55.645Z,14.40
2018-05-31T02:43:23.082Z,14.30
2018-05-31T02:45:49.791Z,14.30
2018-05-31T02:48:16.491Z,14.30
2018-05-31T02:50:43.919Z,14.30
2018-05-31T02:53:10.631Z,14.30
2018-05-31T02:55:37.311Z,14.20
2018-05-31T02:58:04.779Z,14.10
2018-05-31T03:00:31.471Z,14.00
2018-05-31T03:02:58.173Z,14.10
2018-05-31T03:05:24.901Z,14.10
2018-05-31T03:07:51.622Z,14.10
2018-05-31T03:10:19.080Z,14.10
2018-05-31T03:12:46.512Z,14.00
2018-05-31T03:15:13.194Z,14.00
2018-05-31T03:17:39.886Z,14.00
2018-05-31T03:20:06.587Z,14.00
2018-05-31T03:22:33.281Z,13.90
2018-05-31T03:24:59.979Z,13.90
2018-05-31T03:27:26.688Z,13.90
2018-05-31T03:29:54.114Z,13.90
2018-05-31T03:32:21.632Z,13.90
2018-05-31T03:34:48.364Z,14.00
2018-05-31T03:37:15.056Z,14.00
2018-05-31T03:39:41.802Z,14.00
2018-05-31T03:42:09.238Z,14.00
2018-05-31T03:44:35.941Z,14.10
2018-05-31T03:47:02.656Z,14.00
2018-05-31T03:49:29.358Z,14.00
2018-05-31T03:51:56.066Z,14.00
2018-05-31T03:54:22.766Z,14.00
2018-05-31T03:56:50.197Z,13.90
2018-05-31T03:59:16.906Z,13.90
2018-05-31T04:01:43.647Z,14.00
2018-05-31T04:04:10.354Z,14.10
2018-05-31T04:06:37.049Z,14.10
2018-05-31T04:09:06.794Z,14.10
2018-05-31T04:11:34.228Z,14.00
2018-05-31T04:14:01.707Z,14.00
2018-05-31T04:16:28.399Z,14.00
2018-05-31T04:18:55.123Z,14.10
2018-05-31T04:21:21.823Z,14.10
2018-05-31T04:23:49.255Z,14.00
2018-05-31T04:26:16.759Z,14.10
2018-05-31T04:28:43.459Z,14.10
2018-05-31T04:31:11.667Z,14.00
2018-05-31T04:33:38.455Z,14.00
2018-05-31T04:36:05.152Z,14.00
2018-05-31T04:38:31.871Z,14.10
2018-05-31T04:40:58.705Z,13.90
2018-05-31T04:43:25.386Z,14.00
2018-05-31T04:45:52.079Z,14.00
2018-05-31T04:48:19.516Z,14.00
2018-05-31T04:50:47.011Z,14.00
2018-05-31T04:53:13.691Z,14.10
2018-05-31T04:55:40.414Z,14.30
2018-05-31T04:58:07.111Z,14.50
2018-05-31T05:00:34.596Z,15.10
2018-05-31T05:03:01.329Z,15.20
2018-05-31T05:05:28.103Z,15.20
2018-05-31T05:07:54.952Z,15.50
2018-05-31T05:10:21.653Z,15.80
2018-05-31T05:12:48.358Z,15.80
2018-05-31T05:15:15.840Z,15.80
2018-05-31T05:17:42.569Z,15.80
2018-05-31T05:20:09.991Z,15.80
2018-05-31T05:22:36.716Z,15.70
2018-05-31T05:25:03.433Z,15.70
2018-05-31T05:27:30.306Z,15.50
2018-05-31T05:29:57.054Z,15.40
2018-05-31T05:38:32.874Z,15.90
2018-05-31T05:41:00.718Z,16.30
2018-05-31T05:43:27.812Z,16.50
2018-05-31T05:45:54.906Z,16.60
2018-05-31T05:48:21.966Z,16.70
2018-05-31T05:50:49.093Z,16.90
2018-05-31T05:53:16.169Z,17.10
2018-05-31T05:55:43.298Z,17.40
2018-05-31T05:58:11.439Z,17.40
2018-05-31T06:00:39.261Z,17.60
2018-05-31T06:03:06.319Z,17.60
2018-05-31T06:05:33.356Z,17.70
2018-05-31T06:08:00.437Z,17.70
2018-05-31T06:10:28.292Z,18.10
2018-05-31T06:12:56.199Z,18.30
2018-05-31T06:15:23.253Z,18.30
2018-05-31T06:17:50.319Z,18.70
2018-05-31T06:20:17.624Z,18.90
2018-05-31T06:22:45.423Z,19.00
2018-05-31T06:25:12.504Z,19.00
2018-05-31T06:27:39.499Z,19.10
2018-05-31T06:30:06.661Z,19.30
2018-05-31T06:32:39.762Z,19.40
2018-05-31T06:35:07.071Z,19.50
2018-05-31T06:37:34.187Z,19.90
2018-05-31T06:40:01.203Z,20.10
2018-05-31T06:42:28.194Z,19.90
2018-05-31T06:44:55.229Z,19.90
2018-05-31T06:47:22.247Z,20.00
2018-05-31T06:49:49.301Z,20.10
2018-05-31T06:52:16.326Z,20.10
2018-05-31T06:54:44.101Z,20.60
2018-05-31T06:57:11.138Z,20.60
2018-05-31T06:59:38.211Z,20.80
2018-05-31T07:02:05.249Z,21.00
2018-05-31T07:04:32.292Z,21.10
2018-05-31T07:07:05.261Z,21.40
2018-05-31T07:09:33.215Z,22.00
2018-05-31T07:12:00.257Z,21.90
2018-05-31T07:14:27.290Z,22.20
2018-05-31T07:16:54.407Z,22.30
2018-05-31T07:19:27.351Z,22.60
2018-05-31T07:21:54.627Z,22.60
2018-05-31T07:24:21.639Z,22.40
2018-05-31T07:26:48.639Z,22.60
2018-05-31T07:29:15.669Z,22.60
2018-05-31T07:31:43.589Z,22.70
2018-05-31T07:34:10.632Z,22.70
2018-05-31T07:36:38.624Z,22.70
2018-05-31T07:39:05.697Z,22.80
2018-05-31T07:41:33.494Z,22.70
2018-05-31T07:44:00.556Z,22.70
2018-05-31T07:46:27.583Z,22.90
2018-05-31T07:48:54.619Z,23.40
2018-05-31T07:51:28.419Z,23.90
2018-05-31T07:53:56.186Z,23.80
2018-05-31T07:56:23.211Z,23.80
2018-05-31T07:58:50.211Z,23.70
2018-05-31T08:01:17.260Z,24.00
2018-05-31T08:03:44.276Z,24.30
2018-05-31T08:06:12.017Z,24.80
2018-05-31T08:08:39.056Z,24.80
2018-05-31T08:11:06.115Z,24.80
2018-05-31T08:13:39.944Z,25.50
2018-05-31T08:16:07.687Z,26.20
2018-05-31T08:18:35.455Z,25.80
2018-05-31T08:21:03.259Z,25.60
2018-05-31T08:23:30.307Z,25.60
2018-05-31T08:25:57.324Z,25.80
2018-05-31T08:28:25.118Z,25.90
2018-05-31T08:30:52.103Z,25.80
2018-05-31T08:33:19.080Z,26.10
2018-05-31T08:35:46.862Z,25.70
2018-05-31T08:38:13.901Z,25.60
2018-05-31T08:40:40.924Z,25.60
2018-05-31T08:43:09.662Z,25.80
2018-05-31T08:45:36.683Z,26.00
2018-05-31T08:48:03.706Z,26.10
2018-05-31T08:50:30.729Z,26.40
2018-05-31T08:52:57.769Z,26.70
2018-05-31T08:55:24.791Z,26.70
2018-05-31T08:57:51.782Z,26.80
2018-05-31T09:00:18.797Z,27.20
2018-05-31T09:02:45.796Z,27.30
2018-05-31T09:05:13.275Z,27.40
2018-05-31T09:07:40.374Z,27.20
2018-05-31T09:10:07.417Z,27.40
2018-05-31T09:12:34.477Z,27.50
2018-05-31T09:15:01.486Z,27.40
2018-05-31T09:17:28.497Z,27.50
2018-05-31T09:19:57.054Z,27.40
2018-05-31T09:22:24.044Z,27.40
2018-05-31T09:24:51.829Z,27.80
2018-05-31T09:27:18.852Z,27.70
2018-05-31T09:29:46.606Z,27.50
2018-05-31T09:32:14.501Z,27.60
2018-05-31T09:34:41.574Z,27.60
2018-05-31T09:37:08.582Z,27.70
2018-05-31T09:39:36.320Z,28.00
2018-05-31T09:42:04.217Z,28.00
2018-05-31T09:44:32.850Z,28.20
2018-05-31T09:46:59.856Z,28.20
2018-05-31T09:49:27.799Z,28.40
2018-05-31T09:51:54.862Z,28.40
2018-05-31T09:54:22.691Z,28.30
2018-05-31T09:56:49.734Z,28.30
2018-05-31T09:59:16.742Z,29.10
2018-05-31T10:01:43.742Z,29.90
2018-05-31T10:04:10.749Z,30.10
2018-05-31T10:06:37.762Z,29.80
2018-05-31T10:09:04.884Z,29.60
2018-05-31T10:11:31.872Z,29.50
2018-05-31T10:13:58.869Z,29.90
2018-05-31T10:16:25.866Z,30.70
2018-05-31T10:18:53.595Z,30.50
2018-05-31T10:21:20.627Z,30.50
2018-05-31T10:23:47.653Z,29.90
2018-05-31T10:26:14.654Z,30.00
2018-05-31T10:28:41.676Z,29.90
2018-05-31T10:31:08.694Z,29.60
2018-05-31T10:33:35.714Z,29.30
2018-05-31T10:36:03.552Z,29.20
2018-05-31T10:38:30.607Z,29.30
2018-05-31T10:40:58.503Z,29.60
2018-05-31T10:43:25.622Z,30.00
2018-05-31T10:45:52.665Z,29.40
2018-05-31T10:48:19.699Z,29.70
2018-05-31T10:50:46.716Z,29.60
2018-05-31T10:53:13.755Z,29.60
2018-05-31T10:55:40.805Z,29.30
2018-05-31T10:58:21.146Z,28.50
2018-05-31T11:00:48.217Z,29.00
2018-05-31T11:03:15.290Z,28.90
2018-05-31T11:05:42.307Z,29.10
2018-05-31T11:08:09.316Z,29.80
2018-05-31T11:10:36.324Z,29.10
2018-05-31T11:13:03.361Z,28.90
2018-05-31T11:15:36.437Z,28.20
2018-05-31T11:18:03.535Z,27.90
2018-05-31T11:20:36.454Z,27.90
2018-05-31T11:23:04.305Z,29.30
2018-05-31T11:25:31.437Z,29.30
2018-05-31T11:27:58.453Z,29.70
2018-05-31T11:30:25.447Z,29.60
2018-05-31T11:32:52.517Z,29.60
2018-05-31T11:35:20.290Z,29.40
2018-05-31T11:37:47.307Z,29.50
2018-05-31T11:40:14.345Z,29.40
2018-05-31T11:42:41.440Z,29.00
2018-05-31T11:45:20.640Z,29.00
2018-05-31T11:47:48.982Z,28.90
2018-05-31T11:50:16.004Z,28.80
2018-05-31T11:52:43.080Z,29.10
2018-05-31T11:55:10.195Z,30.00
2018-05-31T11:57:37.242Z,30.80
2018-05-31T12:00:04.512Z,30.80
2018-05-31T12:02:31.615Z,31.20
2018-05-31T12:04:58.648Z,30.90
2018-05-31T12:07:25.927Z,31.10
2018-05-31T12:09:53.812Z,30.90
2018-05-31T12:12:20.795Z,30.90
2018-05-31T12:14:47.810Z,31.20
2018-05-31T12:17:15.757Z,31.40
2018-05-31T12:19:43.604Z,32.40
2018-05-31T12:22:10.715Z,32.40
2018-05-31T12:24:37.767Z,32.30
2018-05-31T12:27:04.930Z,32.20
2018-05-31T12:29:31.979Z,31.80
2018-05-31T12:31:59.782Z,31.30
2018-05-31T12:34:27.514Z,30.30
2018-05-31T12:36:54.656Z,30.30
2018-05-31T12:39:21.670Z,30.70
2018-05-31T12:41:48.769Z,31.30
2018-05-31T12:44:15.809Z,32.20
2018-05-31T12:46:42.968Z,32.70
2018-05-31T12:49:10.860Z,32.70
2018-05-31T12:51:38.907Z,33.10
2018-05-31T12:54:06.065Z,33.20
2018-05-31T12:56:33.101Z,33.20
2018-05-31T12:59:00.191Z,32.90
2018-05-31T13:01:27.245Z,32.10
2018-05-31T13:03:54.279Z,31.80
2018-05-31T13:06:21.337Z,31.90
2018-05-31T13:08:48.359Z,31.70
2018-05-31T13:11:15.439Z,31.80
2018-05-31T13:13:42.483Z,31.80
2018-05-31T13:16:09.491Z,31.90
2018-05-31T13:18:36.515Z,31.80
2018-05-31T13:21:03.569Z,31.90
2018-05-31T13:23:30.571Z,32.40
2018-05-31T13:25:57.574Z,32.70
2018-05-31T13:28:24.626Z,32.80
2018-05-31T13:30:51.651Z,33.20
2018-05-31T13:33:18.757Z,33.90
2018-05-31T13:35:46.489Z,33.20
2018-05-31T13:38:13.541Z,33.20
2018-05-31T13:40:40.563Z,33.30
2018-05-31T13:43:07.929Z,32.80
2018-05-31T13:45:35.039Z,32.80
2018-05-31T13:48:07.974Z,32.90
2018-05-31T13:50:36.599Z,32.80
2018-05-31T13:53:04.524Z,33.20
2018-05-31T13:55:31.566Z,32.80
2018-05-31T13:57:58.619Z,32.40
2018-05-31T14:00:25.696Z,32.10
2018-05-31T14:02:54.253Z,31.50
2018-05-31T14:05:21.371Z,31.50
2018-05-31T14:07:49.100Z,31.80
2018-05-31T14:10:16.757Z,31.80
2018-05-31T14:12:43.804Z,31.40
2018-05-31T14:15:10.887Z,31.50
2018-05-31T14:17:38.012Z,31.60
2018-05-31T14:20:05.125Z,31.50
2018-05-31T14:22:38.121Z,30.80
2018-05-31T14:25:05.197Z,30.70
2018-05-31T14:27:32.294Z,29.90
2018-05-31T14:29:59.457Z,29.10
2018-05-31T14:32:26.619Z,28.50
2018-05-31T14:34:53.663Z,28.10
2018-05-31T14:37:20.719Z,28.20
2018-05-31T14:39:49.189Z,28.50
2018-05-31T14:42:16.292Z,29.30
2018-05-31T14:44:43.362Z,30.00
2018-05-31T14:47:10.374Z,30.70
2018-05-31T14:49:37.387Z,31.30
2018-05-31T14:52:05.496Z,31.60
2018-05-31T14:54:32.499Z,32.00
2018-05-31T14:56:59.602Z,32.00
2018-05-31T14:59:26.692Z,32.20
2018-05-31T15:01:53.727Z,32.20
2018-05-31T15:04:20.749Z,31.80
2018-05-31T15:06:47.759Z,31.20
2018-05-31T15:09:15.507Z,30.70
2018-05-31T15:11:43.288Z,30.60
2018-05-31T15:14:10.277Z,30.60
2018-05-31T15:16:37.299Z,30.10
2018-05-31T15:19:05.085Z,30.10
2018-05-31T15:21:32.218Z,30.10
2018-05-31T15:24:00.725Z,30.90
2018-05-31T15:26:27.702Z,30.90
2018-05-31T15:29:00.560Z,30.70
2018-05-31T15:31:27.581Z,30.40
2018-05-31T15:33:55.355Z,29.40
2018-05-31T15:36:22.393Z,29.40
2018-05-31T15:38:50.149Z,29.70
2018-05-31T15:41:23.950Z,29.90
2018-05-31T15:43:51.861Z,29.70
2018-05-31T15:46:18.902Z,29.70
2018-05-31T15:48:46.035Z,29.70
2018-05-31T15:51:13.831Z,29.10
2018-05-31T15:53:40.899Z,29.10
2018-05-31T15:56:07.933Z,28.70
2018-05-31T15:58:34.952Z,28.00
2018-05-31T16:01:07.884Z,27.80
2018-05-31T16:03:34.915Z,27.60
2018-05-31T16:06:01.995Z,27.60
2018-05-31T16:08:35.094Z,27.80
2018-05-31T16:11:02.916Z,28.00
2018-05-31T16:13:29.950Z,27.90
2018-05-31T16:15:56.922Z,28.20
2018-05-31T16:18:29.839Z,28.60
2018-05-31T16:20:57.614Z,29.10
2018-05-31T16:23:25.411Z,29.10
2018-05-31T16:25:52.494Z,29.10
2018-05-31T16:28:19.521Z,28.80
2018-05-31T16:30:47.274Z,28.10
2018-05-31T16:33:14.303Z,28.10
2018-05-31T16:35:41.287Z,27.80
2018-05-31T16:38:08.351Z,27.70
2018-05-31T16:40:35.372Z,27.80
2018-05-31T16:43:02.430Z,27.90
2018-05-31T16:45:29.484Z,28.00
2018-05-31T16:48:02.707Z,28.00
2018-05-31T16:50:29.768Z,28.20
2018-05-31T16:52:57.501Z,27.30
2018-05-31T16:55:24.523Z,27.30
2018-05-31T16:57:51.555Z,27.00
2018-05-31T17:00:18.569Z,26.60
2018-05-31T17:02:46.414Z,26.30
2018-05-31T17:05:13.499Z,26.30
2018-05-31T17:07:40.585Z,26.30
2018-05-31T17:10:07.633Z,26.00
2018-05-31T17:12:34.659Z,25.70
2018-05-31T17:15:01.715Z,25.60
2018-05-31T17:17:28.732Z,25.50
2018-05-31T17:19:56.531Z,25.30
2018-05-31T17:22:23.542Z,25.30
2018-05-31T17:24:51.325Z,25.10
2018-05-31T17:27:18.349Z,25.00
2018-05-31T17:29:46.123Z,24.90
2018-05-31T17:32:14.650Z,24.90
2018-05-31T17:34:41.666Z,24.80
2018-05-31T17:37:08.780Z,24.80
2018-05-31T17:39:36.550Z,24.70
2018-05-31T17:42:04.384Z,24.70
2018-05-31T17:44:31.439Z,24.70
2018-05-31T17:46:58.446Z,24.60
2018-05-31T17:49:25.510Z,24.60
2018-05-31T17:51:52.617Z,24.50
2018-05-31T17:54:20.404Z,24.40
2018-05-31T17:56:47.421Z,24.40
2018-05-31T17:59:14.472Z,24.30
2018-05-31T18:01:42.269Z,24.30
2018-05-31T18:04:09.262Z,24.30
2018-05-31T18:06:36.261Z,24.10
2018-05-31T18:09:03.509Z,24.00
2018-05-31T18:11:30.522Z,23.90
2018-05-31T18:13:58.306Z,23.60
2018-05-31T18:16:25.954Z,23.60
2018-05-31T18:18:59.771Z,23.60
2018-05-31T18:21:27.619Z,23.50
2018-05-31T18:23:54.609Z,23.50
2018-05-31T18:26:21.624Z,23.40
2018-05-31T18:28:48.643Z,23.40
2018-05-31T18:31:15.658Z,23.40
2018-05-31T18:33:42.774Z,23.30
2018-05-31T18:36:10.541Z,23.10
2018-05-31T18:38:38.299Z,23.00
2018-05-31T18:41:06.100Z,22.90
2018-05-31T18:43:33.170Z,22.90
2018-05-31T18:46:00.174Z,23.00
2018-05-31T18:48:33.769Z,23.00
2018-05-31T18:51:01.585Z,22.80
2018-05-31T18:53:28.634Z,22.80
2018-05-31T18:55:55.742Z,22.70
2018-05-31T18:58:23.661Z,22.60
2018-05-31T19:00:50.740Z,22.40
2018-05-31T19:03:18.533Z,22.20
2018-05-31T19:05:45.522Z,22.10
2018-05-31T19:08:12.524Z,22.00
2018-05-31T19:10:39.542Z,21.90
2018-05-31T19:13:13.222Z,21.60
2018-05-31T19:15:46.298Z,21.60
2018-05-31T19:18:19.309Z,21.50
2018-05-31T19:20:53.331Z,21.50
2018-05-31T19:23:20.329Z,21.40
2018-05-31T19:25:47.371Z,21.40
2018-05-31T19:28:14.410Z,21.20
2018-05-31T19:30:47.502Z,21.10
2018-05-31T19:33:14.603Z,21.10
2018-05-31T19:35:47.639Z,21.30
2018-05-31T19:38:15.439Z,21.20
2018-05-31T19:40:42.621Z,21.20
2018-05-31T19:43:16.432Z,21.10
2018-05-31T19:45:44.342Z,21.20
2018-05-31T19:48:11.478Z,21.20
2018-05-31T19:50:38.659Z,21.30
2018-05-31T19:53:12.475Z,21.00
2018-05-31T19:55:39.849Z,21.00
2018-05-31T19:58:13.638Z,21.00
2018-05-31T20:00:47.549Z,21.00
2018-05-31T20:03:22.680Z,21.00
2018-05-31T20:05:53.260Z,20.90
2018-05-31T20:08:20.385Z,20.80
2018-05-31T20:10:47.487Z,20.70
2018-05-31T20:13:14.489Z,20.60
2018-05-31T20:15:41.530Z,20.50
2018-05-31T20:18:14.614Z,20.40
2018-05-31T20:20:54.125Z,20.40
2018-05-31T20:23:21.138Z,20.30
2018-05-31T20:25:48.170Z,20.30
2018-05-31T20:28:15.989Z,20.20
2018-05-31T20:30:43.136Z,20.10
2018-05-31T20:35:42.794Z,20.30
2018-05-31T20:38:15.867Z,20.20
2018-05-31T20:40:42.848Z,20.10
2018-05-31T20:43:10.628Z,19.80
2018-05-31T20:45:43.611Z,19.80
2018-05-31T20:48:10.654Z,19.80
2018-05-31T20:50:38.425Z,19.60
2018-05-31T20:53:05.515Z,19.60
2018-05-31T20:55:32.580Z,19.50
2018-05-31T20:57:59.572Z,19.50
2018-05-31T21:00:26.606Z,19.50
2018-05-31T21:02:54.367Z,19.40
2018-05-31T21:05:22.135Z,19.30
2018-05-31T21:07:49.172Z,19.30
2018-05-31T21:10:16.905Z,19.10
2018-05-31T21:12:43.957Z,19.10
2018-05-31T21:15:11.970Z,19.10
2018-05-31T21:17:44.954Z,19.10
2018-05-31T21:20:12.006Z,19.10
2018-05-31T21:22:39.062Z,19.10
2018-05-31T21:25:06.067Z,19.00
2018-05-31T21:27:33.107Z,19.00
2018-05-31T21:30:00.144Z,19.00
2018-05-31T21:32:27.232Z,18.90
2018-05-31T21:34:54.307Z,18.90
2018-05-31T21:37:21.399Z,18.80
2018-05-31T21:39:48.590Z,18.70
2018-05-31T21:42:15.647Z,18.50
2018-05-31T21:44:42.674Z,18.40
2018-05-31T21:47:16.525Z,18.30
2018-05-31T21:49:43.559Z,18.30
2018-05-31T21:52:10.557Z,18.30
2018-05-31T21:54:37.596Z,18.40
2018-05-31T21:57:04.681Z,18.50
2018-05-31T21:59:32.462Z,18.50
2018-05-31T22:01:59.512Z,18.50
2018-05-31T22:04:32.428Z,18.40
2018-05-31T22:06:59.457Z,18.30
2018-05-31T22:09:27.074Z,18.10
2018-05-31T22:11:54.919Z,17.80
2018-05-31T22:14:21.969Z,17.80
2018-05-31T22:16:49.062Z,17.80
2018-05-31T22:19:16.085Z,17.80
2018-05-31T22:21:43.888Z,17.90
2018-05-31T22:24:10.921Z,17.90
2018-05-31T22:26:37.949Z,17.80
2018-05-31T22:29:05.729Z,17.70
2018-05-31T22:31:38.631Z,17.60
2018-05-31T22:34:05.672Z,17.70
2018-05-31T22:36:32.743Z,17.90
2018-05-31T22:38:59.837Z,18.00
2018-05-31T22:41:27.642Z,18.00
2018-05-31T22:43:54.662Z,18.00
2018-05-31T22:46:21.691Z,18.00
2018-05-31T22:48:49.500Z,18.00
2018-05-31T22:51:16.516Z,18.00
2018-05-31T22:53:44.351Z,18.00
2018-05-31T22:56:11.484Z,18.10
2018-05-31T22:58:38.532Z,18.10
2018-05-31T23:01:05.937Z,18.10
2018-05-31T23:03:33.009Z,17.90
2018-05-31T23:06:00.009Z,17.70
2018-05-31T23:08:32.993Z,17.70
2018-05-31T23:11:00.024Z,17.60
2018-05-31T23:13:27.079Z,17.50
2018-05-31T23:15:54.139Z,17.80
2018-05-31T23:18:21.203Z,17.90
2018-05-31T23:20:48.980Z,18.00
2018-05-31T23:23:16.709Z,18.00
2018-05-31T23:25:43.696Z,18.00
2018-05-31T23:28:11.495Z,18.00
2018-05-31T23:30:38.516Z,18.10
2018-05-31T23:33:05.558Z,18.00
2018-05-31T23:35:33.442Z,18.00
2018-05-31T23:38:00.471Z,18.00
2018-05-31T23:40:28.264Z,18.00
2018-05-31T23:42:55.301Z,18.00
2018-05-31T23:45:22.514Z,18.00
2018-05-31T23:47:49.569Z,18.00
2018-05-31T23:50:17.340Z,17.70
2018-05-31T23:52:44.326Z,17.70
2018-05-31T23:55:12.106Z,17.20
2018-05-31T23:57:41.073Z,17.20
